Time;durP1;ratioP1;P1;durP2;ratioP2;P2;SDS_P1;SDS_P2;PMS_P1;PMS_P2;Temp;Humidity;BMP_temperature;BMP_pressure;BME280_temperature;BME280_humidity;BME280_pressure;Samples;Min_cycle;Max_cycle;Signal;HPM_P1;HPM_P2
2024/03/24 00:01:42;;;;;;;4.28;1.92;;;24.50;43.70;;;;;;6145874;28;86737;-54
2024/03/24 00:04:43;;;;;;;4.95;2.08;;;24.50;44.00;;;;;;6148774;28;81190;-55
2024/03/24 00:07:43;;;;;;;2.22;1.58;;;24.50;44.30;;;;;;6145750;28;80677;-53
2024/03/24 00:10:44;;;;;;;3.17;1.85;;;24.50;43.90;;;;;;6149119;28;81925;-53
2024/03/24 00:13:44;;;;;;;4.38;1.45;;;24.50;43.90;;;;;;6144872;28;81719;-54
2024/03/24 00:16:45;;;;;;;3.17;1.50;;;24.50;43.90;;;;;;6147702;28;80988;-56
2024/03/24 00:19:45;;;;;;;3.15;1.73;;;24.50;44.00;;;;;;6149946;28;81838;-53
2024/03/24 00:22:46;;;;;;;1.63;1.50;;;24.50;44.20;;;;;;6148601;28;81223;-53
2024/03/24 00:25:46;;;;;;;3.00;1.67;;;24.50;44.20;;;;;;6158437;28;81810;-55
2024/03/24 00:28:47;;;;;;;2.40;1.70;;;24.50;43.80;;;;;;6156466;28;81127;-57
2024/03/24 00:31:47;;;;;;;2.58;1.45;;;24.50;44.40;;;;;;6151274;28;81869;-55
2024/03/24 00:34:48;;;;;;;3.28;1.80;;;24.50;44.10;;;;;;6164829;28;81436;-58
2024/03/24 00:37:48;;;;;;;3.03;1.60;;;24.50;44.00;;;;;;6151491;28;81196;-57
2024/03/24 00:40:49;;;;;;;3.50;1.90;;;24.50;43.80;;;;;;6150089;28;80646;-59
2024/03/24 00:43:49;;;;;;;1.55;1.40;;;24.50;44.00;;;;;;6151780;28;80812;-58
2024/03/24 00:46:51;;;;;;;3.53;1.70;;;24.50;43.90;;;;;;6150530;28;80821;-59
2024/03/24 00:49:51;;;;;;;3.35;1.40;;;24.50;43.80;;;;;;6150951;28;81492;-57
2024/03/24 00:52:51;;;;;;;3.15;1.60;;;24.50;43.70;;;;;;6151477;28;81932;-51
2024/03/24 00:55:52;;;;;;;2.47;1.60;;;24.50;43.70;;;;;;6151345;28;80456;-52
2024/03/24 00:58:52;;;;;;;3.22;1.58;;;24.40;43.60;;;;;;6151441;28;80617;-50
2024/03/24 01:01:53;;;;;;;3.90;1.70;;;24.40;43.60;;;;;;6152486;28;80871;-51
2024/03/24 01:04:53;;;;;;;2.53;1.52;;;24.40;43.40;;;;;;6157573;28;82535;-52
2024/03/24 01:07:54;;;;;;;2.17;1.60;;;24.40;43.30;;;;;;6157564;28;80255;-53
2024/03/24 01:10:54;;;;;;;4.13;1.80;;;24.40;43.30;;;;;;6151598;28;80474;-50
2024/03/24 01:13:55;;;;;;;1.80;1.52;;;24.40;43.20;;;;;;6158120;28;80366;-60
2024/03/24 01:16:56;;;;;;;2.38;1.50;;;24.40;43.20;;;;;;6163699;28;80693;-60
2024/03/24 01:19:56;;;;;;;3.85;1.48;;;24.40;43.10;;;;;;6155610;28;80508;-60
2024/03/24 01:22:57;;;;;;;2.25;1.55;;;24.40;43.00;;;;;;6157654;28;81173;-61
2024/03/24 01:25:57;;;;;;;2.67;1.60;;;24.40;42.90;;;;;;6150945;28;80735;-61
2024/03/24 01:28:58;;;;;;;2.42;1.40;;;24.40;42.90;;;;;;6163907;28;85115;-61
2024/03/24 01:31:58;;;;;;;2.85;1.80;;;24.40;42.90;;;;;;6158658;28;81039;-61
2024/03/24 01:34:59;;;;;;;2.55;1.77;;;24.40;42.80;;;;;;6163843;28;80289;-60
2024/03/24 01:37:59;;;;;;;3.75;1.80;;;24.40;42.60;;;;;;6152429;28;80344;-59
2024/03/24 01:41:00;;;;;;;3.42;1.73;;;24.40;42.80;;;;;;6151228;28;80498;-60
2024/03/24 01:44:00;;;;;;;3.78;2.00;;;24.40;42.60;;;;;;6151554;28;80642;-60
2024/03/24 01:47:01;;;;;;;4.55;1.80;;;24.40;42.80;;;;;;6150650;28;83252;-60
2024/03/24 01:50:03;;;;;;;2.25;1.70;;;24.40;42.70;;;;;;6151749;28;81536;-60
2024/03/24 01:53:03;;;;;;;3.05;1.80;;;24.40;42.60;;;;;;6156815;28;80387;-60
2024/03/24 01:56:04;;;;;;;2.53;1.60;;;24.40;42.60;;;;;;6157725;28;80536;-60
2024/03/24 01:59:05;;;;;;;5.00;2.28;;;24.40;42.60;;;;;;6155018;28;80492;-60
2024/03/24 02:02:06;;;;;;;2.95;1.73;;;24.40;42.90;;;;;;6155461;28;80432;-61
2024/03/24 02:05:06;;;;;;;5.13;2.45;;;24.40;43.00;;;;;;6163565;28;82421;-59
2024/03/24 02:08:07;;;;;;;3.92;2.00;;;24.40;43.00;;;;;;6160007;28;81610;-61
2024/03/24 02:11:07;;;;;;;3.88;1.80;;;24.40;43.00;;;;;;6155771;28;80989;-58
2024/03/24 02:14:08;;;;;;;3.42;1.90;;;24.40;42.90;;;;;;6155816;28;81335;-59
2024/03/24 02:17:08;;;;;;;3.15;1.70;;;24.40;42.90;;;;;;6155820;28;81789;-60
2024/03/24 02:20:12;;;;;;;2.50;1.73;;;24.40;42.70;;;;;;6158351;28;85927;-60
2024/03/24 02:23:12;;;;;;;3.08;1.77;;;24.40;43.30;;;;;;6165562;28;80993;-60
2024/03/24 02:26:13;;;;;;;2.55;1.67;;;24.40;42.80;;;;;;6156100;28;80396;-60
2024/03/24 02:29:13;;;;;;;3.03;1.52;;;24.40;43.40;;;;;;6167743;28;80513;-60
2024/03/24 02:32:13;;;;;;;4.68;2.13;;;24.40;43.30;;;;;;6164470;28;81078;-59
2024/03/24 02:35:14;;;;;;;2.45;1.67;;;24.30;42.80;;;;;;6159650;28;80674;-59
2024/03/24 02:38:14;;;;;;;3.63;2.03;;;24.40;43.00;;;;;;6154686;28;80663;-60
2024/03/24 02:41:15;;;;;;;3.22;1.77;;;24.30;43.00;;;;;;6154804;28;80715;-60
2024/03/24 02:44:15;;;;;;;4.15;1.90;;;24.30;42.80;;;;;;6154899;28;80557;-61
2024/03/24 02:47:16;;;;;;;2.55;1.60;;;24.30;43.00;;;;;;6154854;28;80527;-59
2024/03/24 02:50:17;;;;;;;3.80;2.03;;;24.30;42.90;;;;;;6154389;28;82991;-60
2024/03/24 02:53:17;;;;;;;3.42;2.08;;;24.30;42.70;;;;;;6153520;28;80842;-59
2024/03/24 02:56:18;;;;;;;3.55;2.10;;;24.30;42.80;;;;;;6154840;28;80618;-60
2024/03/24 02:59:18;;;;;;;2.13;1.73;;;24.30;42.70;;;;;;6159774;28;80903;-60
2024/03/24 03:02:19;;;;;;;2.83;1.58;;;24.30;42.70;;;;;;6161207;28;80791;-51
2024/03/24 03:05:19;;;;;;;3.38;1.85;;;24.30;42.50;;;;;;6154716;28;81106;-50
2024/03/24 03:08:20;;;;;;;2.83;1.85;;;24.30;42.50;;;;;;6154271;28;80567;-50
2024/03/24 03:11:20;;;;;;;3.17;1.83;;;24.30;42.40;;;;;;6153189;28;82024;-50
2024/03/24 03:14:21;;;;;;;4.10;1.90;;;24.20;42.40;;;;;;6163076;28;81076;-51
2024/03/24 03:17:21;;;;;;;2.83;1.90;;;24.30;42.30;;;;;;6153491;28;81140;-52
2024/03/24 03:20:22;;;;;;;3.60;1.90;;;24.30;42.10;;;;;;6153891;28;81449;-51
2024/03/24 03:23:23;;;;;;;3.10;2.08;;;24.30;42.20;;;;;;6153695;28;80802;-55
2024/03/24 03:26:23;;;;;;;3.88;1.77;;;24.30;42.20;;;;;;6153886;28;81174;-50
2024/03/24 03:29:24;;;;;;;3.13;2.00;;;24.30;42.10;;;;;;6165680;28;83268;-50
2024/03/24 03:32:24;;;;;;;3.50;2.00;;;24.30;42.10;;;;;;6154129;28;80719;-51
2024/03/24 03:35:24;;;;;;;5.05;2.10;;;24.20;41.90;;;;;;6161763;28;80616;-51
2024/03/24 03:38:25;;;;;;;3.75;1.95;;;24.30;42.10;;;;;;6153820;28;80489;-49
2024/03/24 03:41:26;;;;;;;5.05;2.30;;;24.30;42.40;;;;;;6153052;28;80673;-51
2024/03/24 03:44:27;;;;;;;3.95;2.10;;;24.30;42.20;;;;;;6153597;28;82635;-48
2024/03/24 03:47:28;;;;;;;3.10;2.15;;;24.20;42.10;;;;;;6153532;28;81000;-49
2024/03/24 03:50:33;;;;;;;4.75;1.92;;;24.30;42.30;;;;;;6154009;28;80838;-48
2024/03/24 03:53:37;;;;;;;3.63;2.17;;;24.30;42.10;;;;;;6153969;28;81271;-54
2024/03/24 03:56:38;;;;;;;4.88;2.40;;;24.30;42.40;;;;;;6153249;28;85012;-52
2024/03/24 03:59:39;;;;;;;3.75;2.17;;;24.30;42.40;;;;;;6156204;28;80380;-53
2024/03/24 04:02:39;;;;;;;3.30;2.10;;;24.30;42.70;;;;;;6154116;28;80929;-51
2024/03/24 04:05:40;;;;;;;3.85;1.95;;;24.20;42.50;;;;;;6159934;28;80305;-53
2024/03/24 04:08:40;;;;;;;3.38;2.08;;;24.30;42.60;;;;;;6151728;28;84613;-53
2024/03/24 04:11:41;;;;;;;3.17;1.83;;;24.20;42.50;;;;;;6153162;28;81863;-50
2024/03/24 04:14:41;;;;;;;4.93;2.40;;;24.20;42.50;;;;;;6157281;28;80426;-53
2024/03/24 04:17:42;;;;;;;3.33;2.10;;;24.20;42.30;;;;;;6162393;28;81725;-57
2024/03/24 04:20:42;;;;;;;4.03;2.00;;;24.20;42.50;;;;;;6162902;28;88312;-59
2024/03/24 04:23:43;;;;;;;3.10;1.88;;;24.20;42.60;;;;;;6165949;28;80463;-56
2024/03/24 04:26:44;;;;;;;3.80;2.60;;;24.30;42.50;;;;;;6152037;28;81762;-57
2024/03/24 04:29:48;;;;;;;4.68;1.88;;;24.30;42.60;;;;;;6152352;28;81435;-55
2024/03/24 04:32:48;;;;;;;3.70;2.25;;;24.30;42.50;;;;;;6153821;28;80933;-55
2024/03/24 04:35:49;;;;;;;4.35;2.40;;;24.30;42.50;;;;;;6153082;28;82369;-52
2024/03/24 04:38:49;;;;;;;4.55;2.13;;;24.40;42.60;;;;;;6152218;28;80886;-53
2024/03/24 04:41:49;;;;;;;3.42;2.08;;;24.40;42.40;;;;;;6152372;28;82128;-54
2024/03/24 04:44:50;;;;;;;2.95;2.08;;;24.40;42.50;;;;;;6152465;28;80892;-56
2024/03/24 04:47:51;;;;;;;4.38;2.10;;;24.40;42.30;;;;;;6152073;28;81350;-54
2024/03/24 04:50:51;;;;;;;2.22;1.33;;;24.40;42.30;;;;;;6151569;28;80201;-51
2024/03/24 04:53:52;;;;;;;3.33;2.20;;;24.40;42.40;;;;;;6152467;28;80640;-53
2024/03/24 04:56:53;;;;;;;2.92;2.00;;;24.50;42.10;;;;;;6153237;28;80682;-49
2024/03/24 04:59:55;;;;;;;3.33;1.90;;;24.50;41.90;;;;;;6152227;28;80377;-49
2024/03/24 05:02:55;;;;;;;4.15;2.22;;;24.60;41.90;;;;;;6153152;28;81393;-49
2024/03/24 05:05:56;;;;;;;4.55;2.25;;;24.50;41.80;;;;;;6163811;28;80579;-52
2024/03/24 05:08:58;;;;;;;4.15;2.17;;;24.60;41.70;;;;;;6152057;28;80484;-49
2024/03/24 05:11:58;;;;;;;4.00;2.08;;;24.60;41.80;;;;;;6152429;28;80885;-50
2024/03/24 05:14:59;;;;;;;4.28;2.42;;;24.60;41.90;;;;;;6152601;28;81568;-51
2024/03/24 05:18:00;;;;;;;4.03;2.15;;;24.60;41.90;;;;;;6151382;28;80358;-54
2024/03/24 05:21:01;;;;;;;4.88;1.88;;;24.60;41.90;;;;;;6151320;28;80415;-52
2024/03/24 05:24:01;;;;;;;3.00;1.90;;;24.60;42.00;;;;;;6151473;28;80373;-54
2024/03/24 05:27:04;;;;;;;5.45;2.20;;;24.60;41.90;;;;;;6150985;28;80364;-54
2024/03/24 05:30:05;;;;;;;5.25;2.50;;;24.60;42.30;;;;;;6142141;28;84331;-56
2024/03/24 05:33:05;;;;;;;3.95;1.83;;;24.60;42.30;;;;;;6150333;28;81298;-55
2024/03/24 05:36:06;;;;;;;3.35;2.15;;;24.60;42.50;;;;;;6158232;28;80692;-53
2024/03/24 05:39:08;;;;;;;4.88;1.90;;;24.60;42.50;;;;;;6163173;28;81655;-54
2024/03/24 05:42:09;;;;;;;3.72;2.03;;;24.60;42.50;;;;;;6160649;28;80757;-54
2024/03/24 05:45:09;;;;;;;4.10;2.03;;;24.60;42.60;;;;;;6163344;28;80922;-54
2024/03/24 05:48:10;;;;;;;4.15;1.75;;;24.60;42.60;;;;;;6159221;28;81554;-53
2024/03/24 05:51:10;;;;;;;2.70;1.83;;;24.60;42.80;;;;;;6158707;28;80392;-54
2024/03/24 05:54:11;;;;;;;3.38;1.95;;;24.60;42.60;;;;;;6159231;28;84468;-57
2024/03/24 05:57:11;;;;;;;5.10;2.63;;;24.60;42.70;;;;;;6163474;28;83482;-54
2024/03/24 06:00:12;;;;;;;4.57;2.38;;;24.60;42.40;;;;;;6163881;28;80429;-56
2024/03/24 06:03:15;;;;;;;4.00;1.95;;;24.60;42.70;;;;;;6161248;28;81307;-54
2024/03/24 06:06:15;;;;;;;3.63;2.03;;;24.60;42.60;;;;;;6168616;28;80501;-54
2024/03/24 06:09:17;;;;;;;3.13;1.90;;;24.60;42.70;;;;;;6164581;28;80615;-54
2024/03/24 06:12:17;;;;;;;3.17;1.80;;;24.60;42.70;;;;;;6176201;28;81066;-49
2024/03/24 06:15:18;;;;;;;3.70;2.15;;;24.60;43.00;;;;;;6155809;28;80247;-54
2024/03/24 06:18:18;;;;;;;2.88;1.70;;;24.60;42.90;;;;;;6157921;28;82427;-49
2024/03/24 06:21:20;;;;;;;5.38;1.95;;;24.60;42.90;;;;;;6156309;28;83647;-53
2024/03/24 06:24:20;;;;;;;4.45;1.42;;;24.60;43.10;;;;;;6165476;28;83119;-55
2024/03/24 06:27:21;;;;;;;2.75;1.85;;;24.60;42.80;;;;;;6159557;28;80571;-54
2024/03/24 06:30:21;;;;;;;3.83;1.92;;;24.60;42.80;;;;;;6154873;28;81215;-57
2024/03/24 06:33:22;;;;;;;3.35;2.25;;;24.60;42.70;;;;;;6162964;28;80349;-57
2024/03/24 06:36:22;;;;;;;2.80;1.85;;;24.60;42.20;;;;;;6163574;28;80924;-55
2024/03/24 06:39:23;;;;;;;4.63;1.92;;;24.60;42.30;;;;;;6166419;28;80405;-56
2024/03/24 06:42:23;;;;;;;8.63;2.20;;;24.60;42.20;;;;;;6159632;28;81920;-64
2024/03/24 06:45:28;;;;;;;4.00;2.30;;;24.50;42.40;;;;;;6161760;28;81047;-65
2024/03/24 06:48:28;;;;;;;8.80;2.65;;;24.60;43.00;;;;;;6154703;28;80331;-63
2024/03/24 06:51:29;;;;;;;7.75;1.90;;;24.60;43.00;;;;;;6155031;28;83187;-62
2024/03/24 06:54:29;;;;;;;8.48;2.17;;;24.60;42.90;;;;;;6156266;28;81488;-64
2024/03/24 06:57:30;;;;;;;8.02;2.55;;;24.60;41.90;;;;;;6154805;28;80840;-63
2024/03/24 07:00:30;;;;;;;9.02;2.50;;;24.50;41.50;;;;;;6153800;28;80378;-54
2024/03/24 07:03:31;;;;;;;4.65;2.35;;;24.50;41.00;;;;;;6153727;28;81207;-51
2024/03/24 07:06:32;;;;;;;5.55;2.53;;;24.40;41.00;;;;;;6154041;28;80511;-48
2024/03/24 07:09:32;;;;;;;5.90;2.30;;;24.40;41.10;;;;;;6154173;28;80965;-57
2024/03/24 07:12:34;;;;;;;8.60;2.53;;;24.30;40.80;;;;;;6156068;28;80802;-53
2024/03/24 07:15:34;;;;;;;5.65;3.03;;;24.30;40.40;;;;;;6154973;28;80663;-55
2024/03/24 07:18:35;;;;;;;10.45;3.60;;;24.30;40.50;;;;;;6159259;28;81033;-55
2024/03/24 07:21:35;;;;;;;10.00;3.10;;;24.20;40.80;;;;;;6167118;28;83820;-49
2024/03/24 07:24:36;;;;;;;6.00;3.03;;;24.20;40.30;;;;;;6154147;28;80638;-49
2024/03/24 07:27:36;;;;;;;5.22;3.20;;;24.10;40.10;;;;;;6153416;28;80938;-50
2024/03/24 07:30:37;;;;;;;8.77;3.58;;;24.00;40.40;;;;;;6152869;28;82202;-46
2024/03/24 07:33:37;;;;;;;6.38;3.55;;;24.00;40.40;;;;;;6162405;28;81433;-45
2024/03/24 07:36:37;;;;;;;5.22;2.65;;;23.90;40.90;;;;;;6152449;28;82161;-48
2024/03/24 07:39:38;;;;;;;5.63;2.58;;;23.80;40.90;;;;;;6158273;28;80259;-45
2024/03/24 07:42:39;;;;;;;8.75;3.17;;;23.90;42.40;;;;;;6159120;28;80572;-54
2024/03/24 07:45:40;;;;;;;4.53;2.53;;;24.00;42.60;;;;;;6166777;28;82425;-53
2024/03/24 07:48:40;;;;;;;9.75;2.55;;;24.10;43.10;;;;;;6163556;28;80481;-50
2024/03/24 07:51:41;;;;;;;7.18;2.72;;;24.20;44.00;;;;;;6164026;28;82993;-50
2024/03/24 07:54:41;;;;;;;3.97;2.25;;;24.30;44.50;;;;;;6171329;28;80403;-53
2024/03/24 07:57:42;;;;;;;6.70;2.33;;;24.30;44.80;;;;;;6169285;28;80831;-54
2024/03/24 08:00:42;;;;;;;7.28;2.70;;;24.40;45.00;;;;;;6154862;28;83487;-48
2024/03/24 08:03:43;;;;;;;39.13;3.85;;;24.40;45.30;;;;;;6164340;28;81413;-49
2024/03/24 08:06:44;;;;;;;6.80;2.30;;;24.40;45.70;;;;;;6166056;28;80819;-46
2024/03/24 08:09:44;;;;;;;5.10;2.20;;;24.30;45.50;;;;;;6161317;28;82240;-48
2024/03/24 08:12:46;;;;;;;7.13;2.58;;;24.30;45.40;;;;;;6159953;28;81055;-57
2024/03/24 08:15:47;;;;;;;4.00;2.10;;;24.30;45.70;;;;;;6169611;28;80898;-66
2024/03/24 08:18:47;;;;;;;7.65;2.40;;;24.40;45.50;;;;;;6152493;28;81263;-63
2024/03/24 08:21:48;;;;;;;4.05;2.25;;;24.30;45.80;;;;;;6174225;28;80574;-60
2024/03/24 08:24:48;;;;;;;4.47;2.22;;;24.30;46.00;;;;;;6157349;28;80910;-66
2024/03/24 08:27:49;;;;;;;3.03;2.15;;;24.30;46.00;;;;;;6164424;28;80682;-67
2024/03/24 08:30:49;;;;;;;7.35;2.28;;;24.40;46.30;;;;;;6157314;28;80838;-67
2024/03/24 08:33:50;;;;;;;3.80;2.35;;;24.30;46.40;;;;;;6154625;28;80533;-66
2024/03/24 08:36:50;;;;;;;5.70;2.58;;;24.30;46.70;;;;;;6156733;28;80392;-68
2024/03/24 08:39:51;;;;;;;7.32;2.38;;;24.30;47.20;;;;;;6143196;28;83249;-66
2024/03/24 08:42:51;;;;;;;20.58;3.00;;;24.30;46.60;;;;;;6142227;28;81742;-66
2024/03/24 08:45:52;;;;;;;4.68;2.38;;;24.30;46.70;;;;;;6151669;28;80775;-66
2024/03/24 08:48:53;;;;;;;4.95;2.50;;;24.30;46.50;;;;;;6140621;28;80903;-65
2024/03/24 08:51:53;;;;;;;4.75;1.75;;;24.30;46.50;;;;;;6151960;28;80617;-58
2024/03/24 08:54:54;;;;;;;5.10;2.25;;;24.30;46.70;;;;;;6152008;28;80645;-55
2024/03/24 08:57:54;;;;;;;4.00;2.33;;;24.30;46.70;;;;;;6151126;28;80818;-51
2024/03/24 09:00:55;;;;;;;12.18;2.70;;;24.30;46.50;;;;;;6148701;28;85165;-48
2024/03/24 09:03:55;;;;;;;6.78;2.33;;;24.30;46.70;;;;;;6143202;28;80293;-49
2024/03/24 09:06:56;;;;;;;9.38;2.42;;;24.30;46.60;;;;;;6139048;28;80385;-46
2024/03/24 09:09:56;;;;;;;9.43;3.10;;;24.40;47.20;;;;;;6143446;28;81059;-49
2024/03/24 09:12:57;;;;;;;9.00;2.45;;;24.40;47.00;;;;;;6151382;28;80627;-48
2024/03/24 09:15:57;;;;;;;6.00;2.63;;;24.50;47.00;;;;;;6147830;28;80558;-47
2024/03/24 09:18:58;;;;;;;9.77;3.13;;;24.40;45.70;;;;;;6164162;28;80674;-49
2024/03/24 09:21:58;;;;;;;10.07;2.92;;;24.40;44.90;;;;;;6165771;28;80243;-46
2024/03/24 09:24:59;;;;;;;6.07;2.85;;;24.30;44.30;;;;;;6160301;28;81993;-47
2024/03/24 09:27:59;;;;;;;4.35;2.42;;;24.20;44.00;;;;;;6168751;28;81295;-50
2024/03/24 09:31:00;;;;;;;3.90;2.40;;;24.10;43.60;;;;;;6166496;28;81084;-47
2024/03/24 09:34:00;;;;;;;5.13;2.58;;;24.10;43.70;;;;;;6159392;28;80672;-49
2024/03/24 09:37:01;;;;;;;5.30;2.63;;;24.00;43.60;;;;;;6158260;28;80608;-52
2024/03/24 09:40:04;;;;;;;4.43;2.67;;;24.00;43.40;;;;;;6157284;28;80562;-56
2024/03/24 09:43:05;;;;;;;3.88;2.35;;;23.90;43.30;;;;;;6154490;28;80595;-54
2024/03/24 09:46:05;;;;;;;6.72;2.55;;;23.80;43.80;;;;;;6162860;28;80292;-57
2024/03/24 09:49:06;;;;;;;5.65;3.08;;;23.80;44.00;;;;;;6155122;28;80888;-59
2024/03/24 09:52:06;;;;;;;4.13;2.42;;;23.70;43.80;;;;;;6156585;28;81336;-55
2024/03/24 09:55:07;;;;;;;7.13;2.28;;;23.60;44.40;;;;;;6161141;28;82990;-49
2024/03/24 09:58:07;;;;;;;6.72;2.25;;;23.50;43.50;;;;;;6160183;28;81786;-47
2024/03/24 10:01:07;;;;;;;3.05;1.75;;;23.40;43.90;;;;;;6153969;28;80381;-49
2024/03/24 10:04:08;;;;;;;2.20;1.50;;;23.40;43.80;;;;;;6151410;28;81721;-56
2024/03/24 10:07:08;;;;;;;5.65;1.85;;;23.30;43.90;;;;;;6161180;28;85624;-52
2024/03/24 10:10:09;;;;;;;3.75;1.40;;;23.30;44.00;;;;;;6153712;28;80517;-54
2024/03/24 10:13:10;;;;;;;3.33;1.30;;;23.30;44.60;;;;;;6153825;28;81024;-54
2024/03/24 10:16:11;;;;;;;3.80;1.45;;;23.30;45.00;;;;;;6150998;28;80428;-56
2024/03/24 10:19:11;;;;;;;2.42;1.40;;;23.30;44.90;;;;;;6156373;28;80477;-55
2024/03/24 10:22:12;;;;;;;3.38;1.15;;;23.30;44.90;;;;;;6173414;28;85344;-55
2024/03/24 10:25:13;;;;;;;1.95;1.05;;;23.20;44.90;;;;;;6163333;28;80819;-52
2024/03/24 10:28:13;;;;;;;5.47;1.30;;;23.20;44.90;;;;;;6164218;28;80459;-52
2024/03/24 10:31:14;;;;;;;2.03;1.10;;;23.20;44.90;;;;;;6159798;28;80366;-52
2024/03/24 10:34:14;;;;;;;1.60;1.10;;;23.30;44.60;;;;;;6161909;28;81995;-53
2024/03/24 10:37:15;;;;;;;0.95;0.73;;;23.40;44.40;;;;;;6159012;28;80154;-50
2024/03/24 10:40:16;;;;;;;2.10;1.13;;;23.50;45.00;;;;;;6161415;28;80630;-52
2024/03/24 10:43:17;;;;;;;2.00;1.33;;;23.50;45.70;;;;;;6154542;28;80753;-54
2024/03/24 10:46:17;;;;;;;1.92;1.35;;;23.50;46.30;;;;;;6156082;28;80392;-55
2024/03/24 10:49:18;;;;;;;1.10;0.75;;;23.60;46.90;;;;;;6155041;28;80308;-52
2024/03/24 10:52:19;;;;;;;2.90;0.90;;;23.60;47.30;;;;;;6166758;28;80438;-55
2024/03/24 10:55:19;;;;;;;2.42;1.02;;;23.70;48.00;;;;;;6164757;28;80106;-55
2024/03/24 10:58:20;;;;;;;1.08;0.82;;;23.80;48.40;;;;;;6153882;28;80600;-56
2024/03/24 11:01:20;;;;;;;2.15;1.05;;;23.90;48.60;;;;;;6145539;28;81702;-54
2024/03/24 11:04:21;;;;;;;1.75;1.02;;;23.90;49.60;;;;;;6157256;28;80331;-52
2024/03/24 11:07:21;;;;;;;3.85;1.73;;;23.90;49.60;;;;;;6165813;28;83080;-54
2024/03/24 11:10:22;;;;;;;5.90;2.25;;;23.90;50.90;;;;;;6156285;28;81189;-53
2024/03/24 11:13:22;;;;;;;6.53;2.08;;;24.00;51.50;;;;;;6156029;28;81395;-49
2024/03/24 11:16:23;;;;;;;8.65;2.88;;;24.00;51.50;;;;;;6156215;28;80573;-50
2024/03/24 11:19:23;;;;;;;8.05;2.78;;;24.00;51.80;;;;;;6156414;28;81140;-50
2024/03/24 11:22:24;;;;;;;10.18;3.80;;;24.10;51.60;;;;;;6155853;28;80741;-50
2024/03/24 11:25:24;;;;;;;10.93;3.58;;;24.20;51.10;;;;;;6158907;28;81187;-52
2024/03/24 11:28:25;;;;;;;11.32;8.02;;;24.20;50.50;;;;;;6156286;28;81218;-50
2024/03/24 11:31:26;;;;;;;17.38;8.95;;;24.30;50.20;;;;;;6152981;28;80616;-52
2024/03/24 11:34:26;;;;;;;7.97;4.68;;;24.40;49.50;;;;;;6168197;28;80961;-50
2024/03/24 11:37:27;;;;;;;8.95;4.75;;;24.40;49.10;;;;;;6155733;28;81000;-53
2024/03/24 11:40:27;;;;;;;15.07;4.20;;;24.40;49.10;;;;;;6155341;28;81953;-52
2024/03/24 11:43:28;;;;;;;6.78;3.42;;;24.40;48.90;;;;;;6154782;28;81609;-52
2024/03/24 11:46:29;;;;;;;7.25;3.47;;;24.40;48.60;;;;;;6151505;28;80793;-50
2024/03/24 11:49:29;;;;;;;6.32;2.50;;;24.40;48.50;;;;;;6155186;28;80329;-50
2024/03/24 11:52:29;;;;;;;3.78;1.80;;;24.40;48.80;;;;;;6155093;28;80973;-48
2024/03/24 11:55:30;;;;;;;4.10;1.73;;;24.40;48.90;;;;;;6155845;28;81351;-55
2024/03/24 11:58:30;;;;;;;4.30;1.58;;;24.40;48.80;;;;;;6152256;28;81914;-51
2024/03/24 12:01:31;;;;;;;5.38;1.92;;;24.40;48.60;;;;;;6167382;28;81249;-52
2024/03/24 12:04:32;;;;;;;4.13;1.25;;;24.40;48.40;;;;;;6157771;28;81043;-49
2024/03/24 12:07:34;;;;;;;3.47;1.80;;;24.40;48.20;;;;;;6163181;28;81234;-50
2024/03/24 12:10:35;;;;;;;3.25;1.27;;;24.40;48.00;;;;;;6155054;28;80535;-53
2024/03/24 12:13:35;;;;;;;3.03;1.55;;;24.30;48.00;;;;;;6152701;28;81112;-52
2024/03/24 12:16:36;;;;;;;1.27;0.93;;;24.30;47.80;;;;;;6158389;28;80489;-53
2024/03/24 12:19:36;;;;;;;3.97;1.13;;;24.40;47.70;;;;;;6157764;28;81349;-50
2024/03/24 12:22:37;;;;;;;2.33;1.40;;;24.40;47.70;;;;;;6154156;28;80759;-52
2024/03/24 12:25:37;;;;;;;1.70;1.00;;;24.30;47.70;;;;;;6157542;28;81382;-49
2024/03/24 12:28:38;;;;;;;1.85;1.10;;;24.40;47.60;;;;;;6152757;28;80713;-51
2024/03/24 12:31:39;;;;;;;1.92;1.15;;;24.40;47.50;;;;;;6157292;28;80863;-53
2024/03/24 12:34:39;;;;;;;1.73;1.10;;;24.40;47.70;;;;;;6161333;28;81527;-57
2024/03/24 12:37:40;;;;;;;1.48;1.13;;;24.40;47.70;;;;;;6153965;28;80802;-56
2024/03/24 12:40:40;;;;;;;3.70;1.02;;;24.40;47.70;;;;;;6154357;28;80543;-58
2024/03/24 12:43:44;;;;;;;7.13;1.58;;;24.40;47.80;;;;;;6157072;28;81309;-56
2024/03/24 12:46:44;;;;;;;2.08;1.10;;;24.40;48.00;;;;;;6153741;28;80534;-57
2024/03/24 12:49:45;;;;;;;2.67;1.50;;;24.40;47.90;;;;;;6154094;28;80546;-54
2024/03/24 12:52:46;;;;;;;2.47;1.02;;;24.40;47.70;;;;;;6151915;28;83044;-61
2024/03/24 12:55:46;;;;;;;2.10;1.23;;;24.40;48.40;;;;;;6171263;28;80502;-53
2024/03/24 12:58:47;;;;;;;10.55;1.27;;;24.40;47.90;;;;;;6168489;28;83872;-53
2024/03/24 13:01:48;;;;;;;4.53;1.33;;;24.40;48.30;;;;;;6158141;28;80568;-54
2024/03/24 13:04:48;;;;;;;2.97;1.00;;;24.40;48.50;;;;;;6157098;28;80379;-54
2024/03/24 13:07:49;;;;;;;2.30;0.80;;;24.50;48.40;;;;;;6152950;28;80895;-53
2024/03/24 13:10:50;;;;;;;2.50;0.93;;;24.50;48.50;;;;;;6153440;28;81037;-52
2024/03/24 13:13:51;;;;;;;1.38;0.90;;;24.50;49.20;;;;;;6153273;28;80219;-54
2024/03/24 13:16:51;;;;;;;1.15;0.85;;;24.50;49.60;;;;;;6155105;28;80729;-55
2024/03/24 13:19:52;;;;;;;3.15;0.90;;;24.50;49.70;;;;;;6153020;28;80472;-52
2024/03/24 13:22:53;;;;;;;1.25;0.98;;;24.60;49.20;;;;;;6163244;28;80573;-50
2024/03/24 13:25:53;;;;;;;1.02;0.70;;;24.70;49.00;;;;;;6154011;28;80240;-62
2024/03/24 13:28:54;;;;;;;1.63;0.90;;;24.70;49.00;;;;;;6158638;28;80489;-61
2024/03/24 13:31:54;;;;;;;3.63;0.90;;;24.80;49.20;;;;;;6155695;28;80619;-61
2024/03/24 13:34:55;;;;;;;0.93;0.68;;;24.80;48.70;;;;;;6163705;28;80480;-63
2024/03/24 13:37:55;;;;;;;1.48;0.82;;;24.80;48.30;;;;;;6154897;28;80490;-65
2024/03/24 13:40:56;;;;;;;3.17;0.80;;;24.80;48.40;;;;;;6159893;28;80892;-65
2024/03/24 13:43:56;;;;;;;1.02;0.60;;;24.80;48.20;;;;;;6157299;28;80812;-62
2024/03/24 13:46:57;;;;;;;2.17;1.00;;;24.90;48.30;;;;;;6165609;28;82826;-61
2024/03/24 13:50:00;;;;;;;2.13;1.05;;;24.90;48.10;;;;;;6168912;28;80386;-63
2024/03/24 13:53:04;;;;;;;1.15;1.00;;;24.90;47.80;;;;;;6166900;28;81336;-63
2024/03/24 13:56:05;;;;;;;2.08;0.90;;;24.90;47.50;;;;;;6174825;28;81126;-65
2024/03/24 13:59:06;;;;;;;2.13;1.10;;;24.90;47.60;;;;;;6163937;28;80549;-63
2024/03/24 14:02:07;;;;;;;1.80;0.88;;;24.90;47.80;;;;;;6158136;28;82818;-61
2024/03/24 14:05:07;;;;;;;1.25;0.70;;;24.90;47.70;;;;;;6163850;28;80580;-63
2024/03/24 14:08:08;;;;;;;1.15;0.80;;;24.90;47.60;;;;;;6168382;28;80485;-62
2024/03/24 14:11:09;;;;;;;1.33;0.80;;;24.90;47.40;;;;;;6169163;28;80712;-60
2024/03/24 14:14:10;;;;;;;1.85;1.08;;;24.90;46.90;;;;;;6178787;28;80291;-63
2024/03/24 14:17:10;;;;;;;2.45;0.75;;;24.90;46.90;;;;;;6162097;28;81310;-62
2024/03/24 14:20:11;;;;;;;1.88;0.80;;;24.90;46.80;;;;;;6155999;28;80512;-61
2024/03/24 14:23:12;;;;;;;1.15;0.90;;;24.90;46.70;;;;;;6164480;28;80540;-61
2024/03/24 14:26:12;;;;;;;3.10;1.02;;;24.90;46.60;;;;;;6167475;28;80330;-62
2024/03/24 14:29:13;;;;;;;4.40;0.90;;;24.90;46.20;;;;;;6160102;28;81238;-59
2024/03/24 14:32:13;;;;;;;1.38;0.80;;;24.90;46.20;;;;;;6168773;28;82176;-63
2024/03/24 14:35:14;;;;;;;2.17;0.93;;;24.90;46.30;;;;;;6145172;28;80697;-61
2024/03/24 14:38:14;;;;;;;2.10;1.17;;;24.90;46.30;;;;;;6156049;28;80321;-61
2024/03/24 14:41:15;;;;;;;2.42;1.40;;;24.90;46.20;;;;;;6151309;28;82216;-62
2024/03/24 14:44:15;;;;;;;1.70;0.88;;;24.90;45.90;;;;;;6158577;28;82724;-64
2024/03/24 14:47:16;;;;;;;1.00;0.77;;;24.90;45.70;;;;;;6158277;28;80375;-61
2024/03/24 14:50:16;;;;;;;2.83;1.10;;;24.90;45.80;;;;;;6152483;28;80651;-61
2024/03/24 14:53:17;;;;;;;2.20;1.10;;;24.90;45.70;;;;;;6156982;28;80927;-62
2024/03/24 14:56:17;;;;;;;1.10;1.00;;;24.90;45.60;;;;;;6160732;28;80392;-62
2024/03/24 14:59:18;;;;;;;1.70;1.08;;;24.90;45.80;;;;;;6158042;28;80342;-54
2024/03/24 15:02:19;;;;;;;1.13;1.00;;;24.90;46.50;;;;;;6158524;28;81326;-56
2024/03/24 15:05:20;;;;;;;2.55;1.00;;;24.90;45.90;;;;;;6161679;28;83874;-55
2024/03/24 15:08:20;;;;;;;2.15;1.00;;;24.90;45.80;;;;;;6159015;28;81251;-53
2024/03/24 15:11:21;;;;;;;2.17;1.23;;;24.90;45.70;;;;;;6156208;28;80720;-55
2024/03/24 15:14:22;;;;;;;1.33;0.90;;;24.90;45.60;;;;;;6154672;28;81824;-56
2024/03/24 15:17:24;;;;;;;1.95;1.13;;;24.90;45.50;;;;;;6171485;28;81205;-56
2024/03/24 15:20:26;;;;;;;3.15;1.27;;;24.90;45.60;;;;;;6162403;28;81024;-53
2024/03/24 15:23:26;;;;;;;1.80;1.17;;;24.90;45.50;;;;;;6153371;28;80662;-56
2024/03/24 15:26:27;;;;;;;6.18;1.35;;;24.90;45.40;;;;;;6164493;28;80974;-50
2024/03/24 15:29:28;;;;;;;4.82;1.85;;;24.90;45.70;;;;;;6159829;28;80895;-53
2024/03/24 15:32:28;;;;;;;2.58;1.50;;;24.90;45.60;;;;;;6165268;28;80415;-54
2024/03/24 15:35:29;;;;;;;7.68;1.92;;;24.90;45.70;;;;;;6170857;28;80170;-52
2024/03/24 15:38:29;;;;;;;5.28;1.27;;;24.80;46.20;;;;;;6158644;28;80212;-56